Time;durP1;ratioP1;P1;durP2;ratioP2;P2;SDS_P1;SDS_P2;PMS_P1;PMS_P2;Temp;Humidity;BMP_temperature;BMP_pressure;BME280_temperature;BME280_humidity;BME280_pressure;Samples;Min_cycle;Max_cycle;Signal;HPM_P1;HPM_P2
2021/09/21 00:01:13;;;;;;;0.70;0.60;;;;;;;13.99;100.00;-21062.13;6278126;22;20472;-71
2021/09/21 00:03:40;;;;;;;0.70;0.60;;;;;;;13.96;100.00;-21061.44;6277646;22;20373;-70
2021/09/21 00:06:07;;;;;;;0.80;0.80;;;;;;;13.90;100.00;-21059.63;6277683;22;20739;-71
2021/09/21 00:08:35;;;;;;;0.73;0.70;;;;;;;13.82;100.00;-21057.44;6251157;22;20443;-70
2021/09/21 00:11:03;;;;;;;0.80;0.80;;;;;;;13.84;100.00;-21057.97;6250063;22;20499;-70
2021/09/21 00:13:31;;;;;;;0.80;0.70;;;;;;;13.83;100.00;-21057.84;6251428;22;20990;-70
2021/09/21 00:15:59;;;;;;;0.70;0.70;;;;;;;13.79;100.00;-21056.75;6278255;22;20374;-70
2021/09/21 00:18:26;;;;;;;0.70;0.70;;;;;;;13.81;100.00;-21057.28;6250832;22;20408;-71
2021/09/21 00:20:53;;;;;;;0.70;0.60;;;;;;;13.83;100.00;-21057.84;6251510;22;20460;-70
2021/09/21 00:23:20;;;;;;;0.70;0.60;;;;;;;13.82;100.00;-21057.44;6276963;22;20401;-70
2021/09/21 00:25:47;;;;;;;0.70;0.70;;;;;;;13.81;100.00;-21057.28;6276012;22;20393;-70
2021/09/21 00:28:16;;;;;;;0.70;0.70;;;;;;;13.80;100.00;-21057.03;6277533;22;20412;-70
2021/09/21 00:30:56;;;;;;;0.80;0.77;;;;;;;13.77;100.00;-21056.19;6250181;22;20512;-70
2021/09/21 00:33:35;;;;;;;0.70;0.70;;;;;;;13.74;100.00;-21055.38;6251277;22;20427;-70
2021/09/21 00:36:06;;;;;;;0.73;0.67;;;;;;;13.70;100.00;-21054.25;6250370;22;20426;-70
2021/09/21 00:38:39;;;;;;;0.70;0.70;;;;;;;13.69;100.00;-21054.13;6251372;22;20434;-70
2021/09/21 00:41:14;;;;;;;0.70;0.60;;;;;;;13.73;100.00;-21055.09;6250196;22;20410;-70
2021/09/21 00:43:47;;;;;;;0.70;0.60;;;;;;;13.74;100.00;-21055.38;6225634;22;20508;-70
2021/09/21 00:46:18;;;;;;;0.70;0.60;;;;;;;13.74;100.00;-21055.50;6251653;22;20397;-70
2021/09/21 00:48:51;;;;;;;0.70;0.60;;;;;;;13.70;100.00;-21054.25;6251259;22;20421;-70
2021/09/21 00:51:27;;;;;;;0.80;0.80;;;;;;;13.76;100.00;-21056.06;6277914;22;20423;-71
2021/09/21 00:54:00;;;;;;;0.70;0.60;;;;;;;13.72;100.00;-21054.81;6252046;22;20453;-71
2021/09/21 00:56:34;;;;;;;0.70;0.60;;;;;;;13.69;100.00;-21054.00;6225948;22;20745;-70
2021/09/21 00:59:19;;;;;;;0.70;0.60;;;;;;;13.68;100.00;-21053.72;6252453;22;20805;-71
2021/09/21 01:01:51;;;;;;;0.80;0.70;;;;;;;13.64;100.00;-21052.63;6225930;22;20804;-70
2021/09/21 01:04:25;;;;;;;0.80;0.70;;;;;;;13.68;100.00;-21053.84;6277513;22;20374;-70
2021/09/21 01:06:58;;;;;;;0.70;0.70;;;;;;;13.67;100.00;-21053.56;6225792;22;20417;-70
2021/09/21 01:09:31;;;;;;;0.70;0.60;;;;;;;13.68;100.00;-21053.72;6252233;22;20410;-70
2021/09/21 01:12:02;;;;;;;2.00;1.90;;;;;;;13.68;100.00;-21053.72;6250351;22;20425;-71
2021/09/21 01:14:39;;;;;;;1.33;1.23;;;;;;;13.64;100.00;-21052.63;6251416;22;20815;-70
2021/09/21 01:17:12;;;;;;;0.80;0.70;;;;;;;13.62;100.00;-21052.06;6277546;22;20363;-70
2021/09/21 01:19:47;;;;;;;1.00;0.90;;;;;;;13.57;100.00;-21050.69;6226004;22;20421;-70
2021/09/21 01:22:23;;;;;;;0.80;0.70;;;;;;;13.50;100.00;-21048.88;6250550;22;20368;-71
2021/09/21 01:24:54;;;;;;;0.87;0.87;;;;;;;13.51;100.00;-21049.16;6251653;22;20392;-70
2021/09/21 01:27:23;;;;;;;1.13;1.00;;;;;;;13.50;100.00;-21049.03;6276703;22;20750;-70
2021/09/21 01:29:52;;;;;;;0.70;0.67;;;;;;;13.50;100.00;-21048.88;6277269;22;20375;-70
2021/09/21 01:32:21;;;;;;;1.13;1.03;;;;;;;13.52;100.00;-21049.44;6277094;22;20828;-70
2021/09/21 01:34:49;;;;;;;0.70;0.60;;;;;;;13.50;100.00;-21049.03;6276528;22;20782;-70
2021/09/21 01:37:19;;;;;;;0.93;0.83;;;;;;;13.42;100.00;-21046.81;6277049;22;20395;-70
2021/09/21 01:39:46;;;;;;;0.80;0.80;;;;;;;13.41;100.00;-21046.53;6251010;22;20396;-70
2021/09/21 01:42:13;;;;;;;0.70;0.70;;;;;;;13.42;100.00;-21046.81;6276723;22;20454;-70
2021/09/21 01:44:39;;;;;;;0.70;0.60;;;;;;;13.40;100.00;-21046.13;6250249;22;20396;-70
2021/09/21 01:47:06;;;;;;;0.70;0.60;;;;;;;13.39;100.00;-21045.84;6249355;22;20416;-71
2021/09/21 01:49:42;;;;;;;0.70;0.60;;;;;;;13.41;100.00;-21046.53;6249657;22;20470;-70
2021/09/21 01:52:15;;;;;;;0.70;0.60;;;;;;;13.44;100.00;-21047.38;6276468;22;20491;-70
2021/09/21 02:00:17;;;;;;;0.70;0.70;;;;;;;13.39;100.00;-21045.84;6276851;22;20456;-70
2021/09/21 02:02:43;;;;;;;0.70;0.60;;;;;;;13.40;100.00;-21046.28;6249894;22;20396;-71
2021/09/21 02:05:11;;;;;;;0.70;0.60;;;;;;;13.36;100.00;-21045.16;6249806;22;20390;-70
2021/09/21 02:07:37;;;;;;;0.70;0.60;;;;;;;13.33;100.00;-21044.34;6249924;22;20720;-70
2021/09/21 02:10:07;;;;;;;0.70;0.70;;;;;;;13.31;100.00;-21043.78;6276863;22;20427;-70
2021/09/21 02:12:34;;;;;;;0.70;0.60;;;;;;;13.29;100.00;-21043.25;6276112;22;20413;-70
2021/09/21 02:15:02;;;;;;;0.70;0.70;;;;;;;13.29;100.00;-21043.25;6250070;22;20500;-70
2021/09/21 02:17:29;;;;;;;0.70;0.60;;;;;;;13.26;100.00;-21042.41;6249993;22;20485;-70
2021/09/21 02:19:57;;;;;;;0.70;0.63;;;;;;;13.27;100.00;-21042.81;6276887;22;20401;-70
2021/09/21 02:22:23;;;;;;;1.33;1.17;;;;;;;13.24;100.00;-21041.84;6249080;22;20406;-70
2021/09/21 02:24:56;;;;;;;0.70;0.60;;;;;;;13.18;100.00;-21040.19;6276664;22;20872;-70
2021/09/21 02:27:25;;;;;;;1.87;0.90;;;;;;;13.20;100.00;-21040.88;6276077;22;20422;-72
2021/09/21 02:29:52;;;;;;;0.70;0.70;;;;;;;13.21;100.00;-21041.16;6276193;22;20401;-70
2021/09/21 02:32:19;;;;;;;0.70;0.70;;;;;;;13.17;100.00;-21039.94;6250050;22;20720;-70
2021/09/21 02:34:46;;;;;;;0.70;0.60;;;;;;;13.21;100.00;-21041.03;6249914;22;20573;-71
2021/09/21 02:37:15;;;;;;;0.80;0.70;;;;;;;13.21;100.00;-21041.03;6249474;22;20433;-72
2021/09/21 02:39:43;;;;;;;0.70;0.60;;;;;;;13.27;100.00;-21042.81;6249640;22;20398;-70
2021/09/21 02:42:12;;;;;;;0.80;0.70;;;;;;;13.32;100.00;-21044.06;6275557;22;20397;-71
2021/09/21 02:44:40;;;;;;;0.70;0.60;;;;;;;13.21;100.00;-21041.16;6249978;22;20408;-70
2021/09/21 02:47:11;;;;;;;1.27;0.90;;;;;;;13.14;100.00;-21039.22;6276174;22;20365;-71
2021/09/21 02:49:38;;;;;;;0.70;0.70;;;;;;;13.18;100.00;-21040.19;6276149;22;20376;-71
2021/09/21 02:52:05;;;;;;;0.80;0.70;;;;;;;13.14;100.00;-21039.22;6224544;22;20405;-71
2021/09/21 02:54:32;;;;;;;0.70;0.60;;;;;;;13.17;100.00;-21039.94;6276612;22;20471;-70
2021/09/21 02:56:59;;;;;;;0.70;0.60;;;;;;;13.16;100.00;-21039.66;6276148;22;20383;-71
2021/09/21 02:59:25;;;;;;;0.70;0.60;;;;;;;13.22;100.00;-21041.31;6249184;22;20396;-71
2021/09/21 03:01:54;;;;;;;1.27;1.17;;;;;;;13.24;100.00;-21041.84;6276292;22;20697;-71
2021/09/21 03:04:50;;;;;;;1.57;0.93;;;;;;;13.18;100.00;-21040.19;6276802;22;20417;-70
2021/09/21 03:07:14;;;;;;;0.70;0.60;;;;;;;13.13;100.00;-21038.81;6274691;22;20891;-71
2021/09/21 03:12:21;;;;;;;0.80;0.80;;;;;;;13.05;100.00;-21036.88;6249556;22;20414;-71
2021/09/21 03:17:36;;;;;;;0.80;0.70;;;;;;;13.01;100.00;-21035.66;6278053;22;20379;-71
2021/09/21 03:20:04;;;;;;;0.70;0.70;;;;;;;13.02;100.00;-21036.06;6279092;22;20423;-71
2021/09/21 03:22:31;;;;;;;0.70;0.70;;;;;;;12.95;100.00;-21034.13;6278028;22;20854;-71
2021/09/21 03:24:58;;;;;;;1.53;0.97;;;;;;;12.98;100.00;-21034.97;6278260;22;20842;-72
2021/09/21 03:27:26;;;;;;;0.70;0.60;;;;;;;12.87;100.00;-21031.94;6250991;22;20855;-71
2021/09/21 03:29:53;;;;;;;0.70;0.60;;;;;;;12.93;100.00;-21033.44;6278971;22;20684;-70
2021/09/21 03:32:20;;;;;;;0.70;0.70;;;;;;;12.95;100.00;-21034.00;6250844;22;20435;-71
2021/09/21 03:34:48;;;;;;;0.80;0.70;;;;;;;12.91;100.00;-21032.88;6278210;22;20446;-71
2021/09/21 03:37:15;;;;;;;0.80;0.80;;;;;;;12.86;100.00;-21031.50;6277271;22;20430;-70
2021/09/21 03:39:43;;;;;;;1.00;0.80;;;;;;;12.93;100.00;-21033.44;6276611;22;20380;-71
2021/09/21 03:42:10;;;;;;;0.70;0.70;;;;;;;13.00;100.00;-21035.50;6250509;22;20397;-71
2021/09/21 03:44:38;;;;;;;2.10;2.00;;;;;;;13.00;100.00;-21035.50;6277954;22;20388;-71
2021/09/21 03:47:05;;;;;;;0.80;0.80;;;;;;;12.94;100.00;-21033.72;6277878;22;20419;-70
2021/09/21 03:49:32;;;;;;;1.00;0.83;;;;;;;12.87;100.00;-21031.78;6226082;22;20387;-71
2021/09/21 03:52:00;;;;;;;0.80;0.70;;;;;;;12.74;100.00;-21028.34;6277303;22;20368;-71
2021/09/21 03:54:27;;;;;;;0.70;0.60;;;;;;;12.61;100.00;-21024.75;6277762;22;20431;-72
2021/09/21 03:56:55;;;;;;;0.90;0.70;;;;;;;12.43;100.00;-21020.06;6276428;22;20394;-70
2021/09/21 03:59:24;;;;;;;0.80;0.70;;;;;;;12.38;100.00;-21018.53;6250533;22;20391;-70
2021/09/21 04:01:52;;;;;;;0.77;0.60;;;;;;;12.36;100.00;-21018.13;6251185;22;20398;-70
2021/09/21 04:04:19;;;;;;;0.80;0.70;;;;;;;12.36;100.00;-21018.13;6277455;22;20474;-71
2021/09/21 04:06:48;;;;;;;0.70;0.60;;;;;;;12.42;100.00;-21019.78;6277991;22;20425;-71
2021/09/21 04:09:16;;;;;;;0.70;0.60;;;;;;;12.46;100.00;-21020.88;6277824;22;20440;-70
2021/09/21 04:11:43;;;;;;;0.80;0.70;;;;;;;12.49;100.00;-21021.72;6275153;22;20710;-70
2021/09/21 04:14:10;;;;;;;0.70;0.70;;;;;;;12.51;100.00;-21022.25;6249113;22;20813;-71
2021/09/21 04:16:37;;;;;;;0.70;0.60;;;;;;;12.52;100.00;-21022.53;6276669;22;20463;-71
2021/09/21 04:19:04;;;;;;;0.80;0.70;;;;;;;12.50;100.00;-21021.84;6276487;22;20407;-71
2021/09/21 04:21:31;;;;;;;0.80;0.70;;;;;;;12.58;100.00;-21024.19;6250087;22;20452;-72
2021/09/21 04:24:00;;;;;;;0.77;0.70;;;;;;;12.58;100.00;-21024.19;6250264;22;20409;-70
2021/09/21 04:26:29;;;;;;;0.73;0.70;;;;;;;12.65;100.00;-21026.00;6277010;22;20381;-70
2021/09/21 04:28:55;;;;;;;0.70;0.60;;;;;;;12.70;100.00;-21027.22;6278283;22;20374;-71
2021/09/21 04:31:24;;;;;;;0.70;0.60;;;;;;;12.73;100.00;-21028.06;6250544;22;20433;-71
2021/09/21 04:33:53;;;;;;;0.70;0.70;;;;;;;12.74;100.00;-21028.34;6276411;22;20786;-71
2021/09/21 04:36:20;;;;;;;0.70;0.60;;;;;;;12.75;100.00;-21028.75;6277178;22;20392;-71
2021/09/21 04:38:47;;;;;;;0.70;0.60;;;;;;;12.76;100.00;-21028.88;6277578;22;20788;-70
2021/09/21 04:41:14;;;;;;;0.70;0.60;;;;;;;12.74;100.00;-21028.34;6250082;22;20367;-70
2021/09/21 04:43:43;;;;;;;0.70;0.70;;;;;;;12.73;100.00;-21028.19;6225116;22;20433;-70
2021/09/21 04:46:10;;;;;;;0.70;0.63;;;;;;;12.75;100.00;-21028.63;6276959;22;20374;-71
2021/09/21 04:48:39;;;;;;;0.70;0.60;;;;;;;12.71;100.00;-21027.50;6250640;22;20465;-70
2021/09/21 04:51:06;;;;;;;0.70;0.60;;;;;;;12.70;100.00;-21027.22;6277707;22;20399;-71
2021/09/21 04:53:34;;;;;;;0.80;0.73;;;;;;;12.67;100.00;-21026.41;6276195;22;20404;-71
2021/09/21 04:56:01;;;;;;;1.40;1.30;;;;;;;12.68;100.00;-21026.81;6249645;22;20482;-71
2021/09/21 04:58:28;;;;;;;0.70;0.60;;;;;;;12.63;100.00;-21025.31;6250569;22;20427;-70
2021/09/21 05:00:56;;;;;;;0.80;0.80;;;;;;;12.57;100.00;-21023.78;6277498;22;20431;-71
2021/09/21 05:03:23;;;;;;;0.70;0.60;;;;;;;12.53;100.00;-21022.81;6277529;22;20509;-70
2021/09/21 05:05:50;;;;;;;0.80;0.70;;;;;;;12.53;100.00;-21022.69;6277504;22;20733;-71
2021/09/21 05:08:17;;;;;;;0.70;0.70;;;;;;;12.50;100.00;-21022.00;6276818;22;20447;-71
2021/09/21 05:10:44;;;;;;;0.70;0.60;;;;;;;12.52;100.00;-21022.53;6276401;22;20368;-70
2021/09/21 05:13:11;;;;;;;0.70;0.67;;;;;;;12.55;100.00;-21023.22;6276092;22;20398;-71
2021/09/21 05:15:37;;;;;;;0.80;0.80;;;;;;;12.48;100.00;-21021.31;6250337;22;20514;-71
2021/09/21 05:18:07;;;;;;;0.73;0.70;;;;;;;12.44;100.00;-21020.34;6277309;22;20923;-70
2021/09/21 05:20:34;;;;;;;0.70;0.70;;;;;;;12.37;100.00;-21018.41;6249486;22;20458;-70
2021/09/21 05:23:02;;;;;;;0.80;0.70;;;;;;;12.29;100.00;-21016.19;6277113;22;20497;-71
2021/09/21 05:25:29;;;;;;;0.80;0.80;;;;;;;12.31;100.00;-21016.75;6276405;22;20488;-70
2021/09/21 05:27:55;;;;;;;0.80;0.70;;;;;;;12.27;100.00;-21015.78;6276876;22;20393;-70
2021/09/21 05:30:22;;;;;;;0.70;0.60;;;;;;;12.24;100.00;-21014.94;6276797;22;20387;-71
2021/09/21 05:32:49;;;;;;;0.70;0.60;;;;;;;12.23;100.00;-21014.53;6250013;22;20850;-71
2021/09/21 05:35:20;;;;;;;0.73;0.70;;;;;;;12.09;100.00;-21010.94;6276269;22;20506;-70
2021/09/21 05:37:47;;;;;;;1.50;1.37;;;;;;;11.99;100.00;-21008.06;6276685;22;20407;-70
2021/09/21 05:40:16;;;;;;;1.13;1.03;;;;;;;11.79;100.00;-21002.78;6276310;22;20862;-71
2021/09/21 05:42:44;;;;;;;0.70;0.60;;;;;;;11.69;100.00;-20999.91;6277077;22;20389;-70
2021/09/21 05:45:12;;;;;;;0.77;0.70;;;;;;;11.55;100.00;-20996.16;6276678;22;20441;-71
2021/09/21 05:47:39;;;;;;;0.80;0.70;;;;;;;11.32;100.00;-20990.09;6248800;22;20430;-70
2021/09/21 05:50:07;;;;;;;0.70;0.60;;;;;;;11.20;100.00;-20986.63;6275962;22;20839;-70
2021/09/21 05:52:36;;;;;;;0.70;0.60;;;;;;;11.12;100.00;-20984.69;6276304;22;20410;-70
2021/09/21 05:55:05;;;;;;;0.80;0.70;;;;;;;11.10;100.00;-20984.16;6224291;22;20466;-71
2021/09/21 05:57:32;;;;;;;0.77;0.60;;;;;;;11.04;100.00;-20982.34;6248750;22;20855;-69
2021/09/21 06:00:02;;;;;;;0.70;0.60;;;;;;;10.99;100.00;-20980.97;6276569;22;20375;-69
2021/09/21 06:02:38;;;;;;;0.70;0.60;;;;;;;10.89;100.00;-20978.34;6276697;22;20713;-69
2021/09/21 06:05:07;;;;;;;0.70;0.60;;;;;;;10.83;100.00;-20976.69;6249526;22;20470;-70
2021/09/21 06:07:43;;;;;;;0.70;0.60;;;;;;;10.79;100.00;-20975.56;6249050;22;20428;-70
2021/09/21 06:10:10;;;;;;;0.70;0.60;;;;;;;11.01;100.00;-20981.66;6249404;22;20401;-71
2021/09/21 06:12:36;;;;;;;0.80;0.80;;;;;;;11.15;100.00;-20985.25;6276207;22;20503;-70
2021/09/21 06:15:05;;;;;;;0.80;0.77;;;;;;;11.19;100.00;-20986.50;6249410;22;20958;-71
2021/09/21 06:17:33;;;;;;;0.70;0.60;;;;;;;11.15;100.00;-20985.25;6249721;22;20409;-71
2021/09/21 06:20:02;;;;;;;0.70;0.60;;;;;;;11.22;100.00;-20987.19;6249520;22;20397;-72
2021/09/21 06:22:29;;;;;;;0.70;0.60;;;;;;;11.37;100.00;-20991.47;6276657;22;20472;-72
2021/09/21 06:24:58;;;;;;;0.73;0.60;;;;;;;11.45;100.00;-20993.53;6249324;22;20371;-71
2021/09/21 06:27:25;;;;;;;0.70;0.60;;;;;;;11.52;100.00;-20995.47;6247973;22;20455;-71
2021/09/21 06:29:52;;;;;;;0.70;0.60;;;;;;;11.53;100.00;-20995.75;6276412;22;20435;-72
2021/09/21 06:32:19;;;;;;;0.70;0.60;;;;;;;11.58;100.00;-20997.00;6276291;22;20473;-72
2021/09/21 06:34:47;;;;;;;0.70;0.63;;;;;;;11.55;100.00;-20996.16;6249403;22;20418;-71
2021/09/21 06:37:14;;;;;;;0.97;0.90;;;;;;;11.53;100.00;-20995.75;6250282;22;20410;-70
2021/09/21 06:39:41;;;;;;;0.70;0.60;;;;;;;11.66;100.00;-20999.06;6276910;22;20404;-70
2021/09/21 06:42:10;;;;;;;0.80;0.70;;;;;;;11.83;100.00;-21003.75;6275226;22;20387;-71
2021/09/21 06:44:37;;;;;;;0.70;0.60;;;;;;;11.99;100.00;-21008.19;6249513;22;20393;-71
2021/09/21 06:47:04;;;;;;;0.70;0.60;;;;;;;12.08;100.00;-21010.69;6277431;22;20440;-71
2021/09/21 06:49:33;;;;;;;0.70;0.60;;;;;;;12.24;100.00;-21014.81;6252118;22;20485;-71
2021/09/21 06:52:03;;;;;;;0.80;0.70;;;;;;;12.35;100.00;-21017.72;6279119;22;20373;-72
2021/09/21 06:54:30;;;;;;;0.70;0.60;;;;;;;12.44;100.00;-21020.19;6278681;22;20465;-71
2021/09/21 06:56:57;;;;;;;0.70;0.60;;;;;;;12.46;100.00;-21020.88;6251874;22;20425;-70
2021/09/21 06:59:26;;;;;;;0.80;0.70;;;;;;;12.31;100.00;-21016.75;6252273;22;20397;-72
2021/09/21 07:01:54;;;;;;;0.70;0.60;;;;;;;12.51;100.00;-21022.25;6251220;22;20435;-71
2021/09/21 07:04:21;;;;;;;0.80;0.70;;;;;;;12.72;100.00;-21027.94;6278152;22;20413;-72
2021/09/21 07:06:50;;;;;;;0.80;0.73;;;;;;;12.65;100.00;-21025.84;6251009;22;20459;-71
2021/09/21 07:09:17;;;;;;;0.80;0.80;;;;;;;12.67;100.00;-21026.41;6251323;22;20427;-71
2021/09/21 07:11:46;;;;;;;0.70;0.60;;;;;;;12.58;100.00;-21024.19;6278010;22;20419;-72
2021/09/21 07:14:14;;;;;;;0.70;0.60;;;;;;;12.69;100.00;-21027.09;6278267;22;20418;-71
2021/09/21 07:16:43;;;;;;;0.70;0.60;;;;;;;12.82;100.00;-21030.53;6278425;22;20397;-72
2021/09/21 07:19:10;;;;;;;0.77;0.70;;;;;;;12.84;100.00;-21030.97;6250669;22;20493;-71
2021/09/21 07:21:37;;;;;;;0.70;0.60;;;;;;;12.87;100.00;-21031.94;6278122;22;20389;-71
2021/09/21 07:24:04;;;;;;;0.70;0.70;;;;;;;12.89;100.00;-21032.47;6278352;22;20457;-71
2021/09/21 07:26:36;;;;;;;0.70;0.60;;;;;;;12.84;100.00;-21031.09;6251810;22;20390;-70
2021/09/21 07:29:05;;;;;;;0.87;0.87;;;;;;;12.99;100.00;-21035.22;6278331;22;20735;-70
2021/09/21 07:31:32;;;;;;;0.80;0.70;;;;;;;13.10;100.00;-21038.13;6251262;22;20391;-72
2021/09/21 07:34:00;;;;;;;0.70;0.60;;;;;;;13.17;100.00;-21039.94;6251324;22;20760;-70
2021/09/21 07:36:27;;;;;;;0.70;0.60;;;;;;;13.39;100.00;-21045.84;6277695;22;20880;-70
2021/09/21 07:38:54;;;;;;;0.80;0.70;;;;;;;13.45;100.00;-21047.66;6251330;22;20455;-71
2021/09/21 07:41:21;;;;;;;0.80;0.70;;;;;;;13.47;100.00;-21048.19;6250496;22;20750;-71
2021/09/21 07:43:48;;;;;;;0.80;0.70;;;;;;;13.64;100.00;-21052.63;6277764;22;20453;-70
2021/09/21 07:46:16;;;;;;;0.80;0.70;;;;;;;13.84;100.00;-21058.13;6250861;22;20408;-69
2021/09/21 07:48:43;;;;;;;1.13;1.03;;;;;;;13.84;100.00;-21058.13;6278366;22;20468;-71
2021/09/21 07:51:14;;;;;;;0.70;0.60;;;;;;;13.77;100.00;-21056.19;6251115;22;20406;-71
2021/09/21 07:53:41;;;;;;;0.80;0.70;;;;;;;14.05;100.00;-21063.78;6277681;22;20406;-69
2021/09/21 07:56:10;;;;;;;0.80;0.70;;;;;;;14.62;100.00;-21079.06;6276723;22;20459;-71
2021/09/21 07:58:47;;;;;;;0.80;0.80;;;;;;;15.05;100.00;-21090.63;6277300;22;20377;-70
2021/09/21 08:01:14;;;;;;;0.80;0.60;;;;;;;15.11;100.00;-21092.25;6277804;22;20376;-70
2021/09/21 08:03:44;;;;;;;0.97;0.87;;;;;;;15.68;100.00;-21107.81;6225624;22;20412;-71
2021/09/21 08:06:14;;;;;;;0.70;0.60;;;;;;;16.67;100.00;-21134.31;6278273;22;20920;-71
2021/09/21 08:08:45;;;;;;;0.80;0.60;;;;;;;16.69;100.00;-21134.88;6250490;22;20437;-70
2021/09/21 08:11:12;;;;;;;0.80;0.70;;;;;;;17.72;100.00;-21162.56;6276866;22;20378;-70
2021/09/21 08:13:39;;;;;;;1.07;0.97;;;;;;;17.61;100.00;-21159.56;6250835;22;20378;-71
2021/09/21 08:16:07;;;;;;;0.80;0.70;;;;;;;18.02;100.00;-21170.53;6277677;22;20777;-70
2021/09/21 08:18:37;;;;;;;0.80;0.70;;;;;;;18.28;100.00;-21177.66;6249746;22;20411;-70
2021/09/21 08:21:05;;;;;;;1.53;1.00;;;;;;;18.69;100.00;-21188.59;6250889;22;20402;-71
2021/09/21 08:23:32;;;;;;;1.33;1.23;;;;;;;18.73;100.00;-21189.69;6277285;22;20709;-71
2021/09/21 08:26:01;;;;;;;0.70;0.60;;;;;;;19.08;100.00;-21199.00;6276949;22;20372;-70
2021/09/21 08:28:31;;;;;;;1.13;1.00;;;;;;;19.11;100.00;-21199.81;6277792;22;20466;-71
2021/09/21 08:31:01;;;;;;;0.90;0.80;;;;;;;20.29;100.00;-21231.41;6277662;22;20371;-71
2021/09/21 08:33:28;;;;;;;0.80;0.70;;;;;;;20.07;100.00;-21225.53;6250011;22;20450;-70
2021/09/21 08:36:00;;;;;;;0.70;0.60;;;;;;;20.18;100.00;-21228.53;6250996;22;20444;-71
2021/09/21 08:38:27;;;;;;;1.27;0.70;;;;;;;19.39;100.00;-21207.34;6277080;22;20490;-70
2021/09/21 08:40:54;;;;;;;0.70;0.50;;;;;;;19.76;100.00;-21217.19;6277410;22;20367;-71
2021/09/21 08:43:23;;;;;;;0.77;0.60;;;;;;;20.49;100.00;-21236.72;6277515;22;20399;-71
2021/09/21 08:45:50;;;;;;;0.80;0.70;;;;;;;21.06;100.00;-21252.03;6277080;22;20859;-70
2021/09/21 08:48:19;;;;;;;0.80;0.60;;;;;;;21.09;100.00;-21252.84;6277642;22;20925;-71
2021/09/21 08:50:46;;;;;;;0.80;0.70;;;;;;;19.91;100.00;-21221.28;6249588;22;20394;-71
2021/09/21 08:53:13;;;;;;;1.67;0.73;;;;;;;21.76;100.00;-21270.56;6224939;22;20480;-70
2021/09/21 08:55:40;;;;;;;0.93;0.80;;;;;;;21.18;100.00;-21255.28;6277275;22;20415;-70
2021/09/21 08:58:08;;;;;;;0.90;0.90;;;;;;;22.11;100.00;-21279.97;6277676;22;20387;-70
2021/09/21 09:00:37;;;;;;;1.00;0.80;;;;;;;21.91;100.00;-21274.66;6277426;22;20427;-71
2021/09/21 09:03:11;;;;;;;0.70;0.60;;;;;;;21.80;100.00;-21271.66;6225564;22;20430;-71
2021/09/21 09:05:44;;;;;;;0.80;0.70;;;;;;;21.52;100.00;-21264.16;6276651;22;20371;-70
2021/09/21 09:08:28;;;;;;;0.70;0.50;;;;;;;22.06;100.00;-21278.59;6276553;22;20403;-70
2021/09/21 09:11:08;;;;;;;0.70;0.60;;;;;;;21.94;100.00;-21275.47;6276622;22;20389;-70
2021/09/21 09:13:36;;;;;;;0.70;0.50;;;;;;;23.54;100.00;-21318.22;6250306;22;20764;-70
2021/09/21 09:16:12;;;;;;;0.70;0.60;;;;;;;23.09;100.00;-21306.25;6250743;22;20417;-70
2021/09/21 09:18:40;;;;;;;0.70;0.60;;;;;;;23.13;100.00;-21307.19;6277040;22;20375;-70
2021/09/21 09:21:08;;;;;;;0.93;0.80;;;;;;;24.49;100.00;-21343.47;6277278;22;20375;-69
2021/09/21 09:23:44;;;;;;;0.77;0.70;;;;;;;24.73;100.00;-21349.72;6249893;22;20449;-70
2021/09/21 09:26:12;;;;;;;0.70;0.50;;;;;;;24.88;100.00;-21353.78;6276644;22;20368;-70
2021/09/21 09:28:39;;;;;;;0.80;0.70;;;;;;;24.51;100.00;-21344.03;6276944;22;20372;-70
2021/09/21 09:31:08;;;;;;;0.80;0.60;;;;;;;24.13;100.00;-21333.69;6250127;22;20712;-70
2021/09/21 09:33:36;;;;;;;0.93;0.60;;;;;;;23.11;100.00;-21306.78;6276855;22;20450;-71
2021/09/21 09:36:04;;;;;;;0.70;0.60;;;;;;;22.97;100.00;-21302.97;6250606;22;20418;-69
2021/09/21 09:38:41;;;;;;;0.70;0.50;;;;;;;22.59;100.00;-21292.78;6249661;22;20407;-70
2021/09/21 09:41:14;;;;;;;0.70;0.50;;;;;;;22.77;100.00;-21297.53;6249900;22;20425;-69
2021/09/21 09:43:45;;;;;;;0.70;0.50;;;;;;;22.91;100.00;-21301.34;6249402;22;20398;-69
2021/09/21 09:46:16;;;;;;;0.70;0.53;;;;;;;22.73;100.00;-21296.44;6277276;22;20368;-69
2021/09/21 09:48:56;;;;;;;0.70;0.50;;;;;;;21.78;100.00;-21271.09;6276799;22;20871;-70
2021/09/21 09:51:23;;;;;;;0.70;0.60;;;;;;;22.16;100.00;-21281.47;6249927;22;20685;-70
2021/09/21 09:53:51;;;;;;;0.80;0.60;;;;;;;22.28;100.00;-21284.47;6277078;22;20490;-70
2021/09/21 09:56:18;;;;;;;0.70;0.60;;;;;;;22.38;100.00;-21287.19;6249533;22;20469;-70
2021/09/21 09:58:47;;;;;;;0.70;0.53;;;;;;;23.02;100.00;-21304.34;6277301;22;20391;-70
2021/09/21 10:01:16;;;;;;;0.80;0.80;;;;;;;22.30;100.00;-21285.00;6275646;22;20391;-70
2021/09/21 10:03:44;;;;;;;0.97;0.90;;;;;;;22.89;100.00;-21300.78;6276376;22;20387;-70
2021/09/21 10:06:11;;;;;;;0.70;0.60;;;;;;;23.04;100.00;-21304.88;6276912;22;20383;-70
2021/09/21 10:08:38;;;;;;;0.87;0.70;;;;;;;23.34;100.00;-21312.91;6249351;22;20423;-70
2021/09/21 10:11:05;;;;;;;0.70;0.50;;;;;;;23.95;100.00;-21329.09;6276645;22;20387;-71
2021/09/21 10:13:33;;;;;;;0.70;0.50;;;;;;;23.84;100.00;-21326.09;6277187;22;20399;-70
2021/09/21 10:16:00;;;;;;;1.10;0.60;;;;;;;24.55;100.00;-21344.97;6277312;22;20410;-70
2021/09/21 10:18:28;;;;;;;0.70;0.50;;;;;;;23.70;100.00;-21322.28;6274131;22;20414;-70
2021/09/21 10:20:58;;;;;;;0.73;0.60;;;;;;;23.97;100.00;-21329.63;6224640;22;20759;-70
2021/09/21 10:23:31;;;;;;;1.80;1.37;;;;;;;23.93;100.00;-21328.53;6276789;22;20413;-70
2021/09/21 10:26:11;;;;;;;0.80;0.60;;;;;;;23.85;100.00;-21326.38;6276463;22;20363;-71
2021/09/21 10:28:42;;;;;;;0.80;0.60;;;;;;;23.48;100.00;-21316.44;6250776;22;20372;-70
2021/09/21 10:31:14;;;;;;;0.70;0.50;;;;;;;23.93;100.00;-21328.41;6250139;22;20748;-70
2021/09/21 10:33:43;;;;;;;0.80;0.70;;;;;;;25.30;100.00;-21364.91;6275562;22;20386;-70
2021/09/21 10:36:17;;;;;;;0.70;0.53;;;;;;;25.39;100.00;-21367.34;6248782;22;20515;-71
2021/09/21 10:38:55;;;;;;;0.70;0.53;;;;;;;24.69;100.00;-21348.63;6276468;22;20710;-70
2021/09/21 10:41:23;;;;;;;0.70;0.50;;;;;;;24.10;100.00;-21333.16;6276142;22;20420;-70
2021/09/21 10:44:03;;;;;;;0.70;0.60;;;;;;;24.34;100.00;-21339.41;6249163;22;20456;-70
2021/09/21 10:46:41;;;;;;;0.70;0.70;;;;;;;24.35;100.00;-21339.81;6276973;22;20375;-69
2021/09/21 10:49:21;;;;;;;0.80;0.60;;;;;;;24.35;100.00;-21339.69;6276073;22;20371;-70
2021/09/21 10:51:49;;;;;;;0.70;0.60;;;;;;;24.89;100.00;-21353.94;6275988;22;20371;-70
2021/09/21 10:54:16;;;;;;;0.70;0.50;;;;;;;25.43;100.00;-21368.44;6249426;22;20468;-70
2021/09/21 10:56:49;;;;;;;0.70;0.50;;;;;;;24.80;100.00;-21351.63;6275312;22;20415;-69
2021/09/21 10:59:19;;;;;;;0.70;0.50;;;;;;;24.98;100.00;-21356.38;6248400;22;20390;-69
2021/09/21 11:01:47;;;;;;;0.70;0.50;;;;;;;25.43;100.00;-21368.44;6276521;22;20801;-69
2021/09/21 11:04:15;;;;;;;0.70;0.60;;;;;;;25.10;100.00;-21359.63;6276097;22;20371;-69
2021/09/21 11:06:43;;;;;;;0.70;0.60;;;;;;;24.93;100.00;-21355.16;6276222;22;20425;-69
2021/09/21 11:09:10;;;;;;;0.80;0.67;;;;;;;24.30;100.00;-21338.31;6276039;22;20593;-70
2021/09/21 11:11:37;;;;;;;0.70;0.60;;;;;;;24.90;100.00;-21354.34;6275709;22;20474;-69
2021/09/21 11:14:05;;;;;;;0.70;0.50;;;;;;;24.19;100.00;-21335.47;6250156;22;20441;-70
2021/09/21 11:16:32;;;;;;;0.80;0.70;;;;;;;23.21;100.00;-21309.38;6275772;22;20407;-69
2021/09/21 11:18:59;;;;;;;0.70;0.60;;;;;;;23.27;100.00;-21311.00;6249279;22;20426;-70
2021/09/21 11:21:27;;;;;;;0.70;0.60;;;;;;;22.96;100.00;-21302.72;6249730;22;20372;-70
2021/09/21 11:23:56;;;;;;;0.70;0.60;;;;;;;22.83;100.00;-21299.16;6276328;22;20517;-72
2021/09/21 11:26:23;;;;;;;0.70;0.57;;;;;;;23.31;100.00;-21312.09;6275472;22;20458;-69
2021/09/21 11:28:50;;;;;;;0.73;0.60;;;;;;;23.13;100.00;-21307.34;6249795;22;20421;-70
2021/09/21 11:31:18;;;;;;;0.80;0.60;;;;;;;23.06;100.00;-21305.44;6249157;22;20423;-69
2021/09/21 11:33:47;;;;;;;0.70;0.60;;;;;;;22.91;100.00;-21301.34;6249347;22;20402;-70
2021/09/21 11:36:15;;;;;;;0.70;0.60;;;;;;;22.63;100.00;-21293.84;6278693;22;20907;-70